Terminal Aerodrome Forecast
Issued by NWS

Home | Current Version | Previous Version | Text Only | Print | Product List | Glossary On
Versions: 1 2 3 4 5 6 7 8 9 10 11 12 13 14 15 16 17
000
FTUS45 KREV 210700 AAA
TAFMMH
TAF AMD
KMMH 210748Z 2108/2206 24020G32KT P6SM FEW100
     FM211100 28012G24KT P6SM SKC
     FM211300 30008KT P6SM SCT150
     FM211800 12006KT P6SM BKN150
      AMD NOT SKED 2108/2114=

USA.gov is the U.S. government's official web portal to all federal, state and local government web resources and services.